createdAt,value
2023-02-03T00:01:23.782Z,78.22
2023-02-03T00:04:26.665Z,77.96
2023-02-03T00:07:29.954Z,77.83
2023-02-03T00:10:35.324Z,77.03
2023-02-03T00:13:38.402Z,77.30
2023-02-03T00:16:41.466Z,77.05
2023-02-03T00:19:44.489Z,77.12
2023-02-03T00:22:47.480Z,77.01
2023-02-03T00:25:50.809Z,77.32
2023-02-03T00:28:54.199Z,77.62
2023-02-03T00:31:59.166Z,78.00
2023-02-03T00:35:02.790Z,78.37
2023-02-03T00:38:05.773Z,78.77
2023-02-03T00:41:08.830Z,79.10
2023-02-03T00:44:11.919Z,79.44
2023-02-03T00:47:14.917Z,79.54
2023-02-03T00:50:17.950Z,80.12
2023-02-03T00:53:20.840Z,80.31
2023-02-03T00:56:23.819Z,80.69
2023-02-03T00:59:27.017Z,80.89
2023-02-03T01:02:30.345Z,81.07
2023-02-03T01:05:33.374Z,81.16
2023-02-03T01:08:36.399Z,81.44
2023-02-03T01:11:39.391Z,81.53
2023-02-03T01:14:42.369Z,81.35
2023-02-03T01:17:45.438Z,81.47
2023-02-03T01:20:48.412Z,81.53
2023-02-03T01:23:52.609Z,81.31
2023-02-03T01:26:55.572Z,81.34
2023-02-03T01:29:58.538Z,81.97
2023-02-03T01:33:01.570Z,82.28
2023-02-03T01:36:04.603Z,82.57
2023-02-03T01:39:08.337Z,82.43
2023-02-03T01:42:16.138Z,83.02
2023-02-03T01:45:19.687Z,82.19
2023-02-03T01:48:22.803Z,82.77
2023-02-03T01:51:26.176Z,82.71
2023-02-03T01:54:37.685Z,82.97
2023-02-03T01:57:52.720Z,83.23
2023-02-03T02:00:57.779Z,82.93
2023-02-03T02:04:03.179Z,83.34
2023-02-03T02:07:07.142Z,83.24
2023-02-03T02:10:11.199Z,82.77
2023-02-03T02:13:17.934Z,82.98
2023-02-03T02:17:05.691Z,83.09
2023-02-03T02:20:24.548Z,82.55
2023-02-03T02:23:53.622Z,82.49
2023-02-03T02:26:59.666Z,82.18
2023-02-03T02:30:24.419Z,81.91
2023-02-03T02:33:42.920Z,82.05
2023-02-03T02:37:07.402Z,82.19
2023-02-03T02:40:24.139Z,82.11
2023-02-03T02:43:40.123Z,82.61
2023-02-03T02:47:02.201Z,82.81
2023-02-03T02:50:09.016Z,83.07
2023-02-03T02:53:15.220Z,83.25
2023-02-03T02:56:19.795Z,83.33
2023-02-03T02:59:22.823Z,83.11
2023-02-03T03:02:34.066Z,82.88
2023-02-03T03:05:37.350Z,82.90
2023-02-03T03:08:52.791Z,82.81
2023-02-03T03:12:05.165Z,82.72
2023-02-03T03:15:14.748Z,82.90
2023-02-03T03:18:31.499Z,83.49
2023-02-03T03:21:46.316Z,84.13
2023-02-03T03:24:55.565Z,84.18
2023-02-03T03:28:06.112Z,83.87
2023-02-03T03:31:09.187Z,84.23
2023-02-03T03:34:14.257Z,84.21
2023-02-03T03:37:46.541Z,84.19
2023-02-03T03:40:57.758Z,83.92
2023-02-03T03:44:06.572Z,84.78
2023-02-03T03:47:17.873Z,84.25
2023-02-03T03:50:29.556Z,84.14
2023-02-03T03:53:37.021Z,84.18
2023-02-03T03:56:58.162Z,84.13
2023-02-03T04:00:04.322Z,84.14
2023-02-03T04:03:21.044Z,84.16
2023-02-03T04:06:24.207Z,84.06
2023-02-03T04:09:27.197Z,83.84
2023-02-03T04:12:30.165Z,83.73
2023-02-03T04:15:34.402Z,83.50
2023-02-03T04:18:37.500Z,83.51
2023-02-03T04:21:40.388Z,83.80
2023-02-03T04:24:43.474Z,84.12
2023-02-03T04:27:46.740Z,84.27
2023-02-03T04:30:49.806Z,84.10
2023-02-03T04:33:52.802Z,83.82
2023-02-03T04:36:55.780Z,83.72
2023-02-03T04:39:58.893Z,83.85
2023-02-03T04:43:07.912Z,83.94
2023-02-03T04:46:11.325Z,83.99
2023-02-03T04:49:14.317Z,83.99
2023-02-03T04:52:17.375Z,84.05
2023-02-03T04:55:20.382Z,84.06
2023-02-03T04:58:23.732Z,84.20
2023-02-03T05:01:26.770Z,84.56
2023-02-03T05:04:29.954Z,84.58
2023-02-03T05:07:32.929Z,84.79
2023-02-03T05:10:35.956Z,84.71
2023-02-03T05:13:38.852Z,84.50
2023-02-03T05:16:41.938Z,84.30
2023-02-03T05:19:45.212Z,84.08
2023-02-03T05:22:48.349Z,83.92
2023-02-03T05:25:51.380Z,83.94
2023-02-03T05:28:56.616Z,83.84
2023-02-03T05:32:00.433Z,83.91
2023-02-03T05:35:03.476Z,84.16
2023-02-03T05:38:06.697Z,84.04
2023-02-03T05:41:30.723Z,84.12
2023-02-03T05:44:33.780Z,83.95
2023-02-03T05:47:36.821Z,83.96
2023-02-03T05:50:39.825Z,83.97
2023-02-03T05:53:42.926Z,84.09
2023-02-03T05:56:45.854Z,84.05
2023-02-03T05:59:49.906Z,83.97
2023-02-03T06:02:58.489Z,83.86
2023-02-03T06:06:01.634Z,83.65
2023-02-03T06:09:06.905Z,83.62
2023-02-03T06:12:09.768Z,83.45
2023-02-03T06:15:13.186Z,83.45
2023-02-03T06:18:16.101Z,83.25
2023-02-03T06:21:20.452Z,82.95
2023-02-03T06:24:23.258Z,82.86
2023-02-03T06:27:26.487Z,82.74
2023-02-03T06:30:29.880Z,82.31
2023-02-03T06:33:33.389Z,82.52
2023-02-03T06:36:36.387Z,82.54
2023-02-03T06:39:39.361Z,82.20
2023-02-03T06:42:46.156Z,81.96
2023-02-03T06:45:49.141Z,81.66
2023-02-03T06:48:52.121Z,80.84
2023-02-03T06:51:55.238Z,80.23
2023-02-03T06:54:58.156Z,80.34
2023-02-03T06:58:01.161Z,80.11
2023-02-03T07:01:04.329Z,79.56
2023-02-03T07:04:07.224Z,80.00
2023-02-03T07:07:10.042Z,80.07
2023-02-03T07:10:12.920Z,79.82
2023-02-03T07:13:15.715Z,79.13
2023-02-03T07:16:18.730Z,79.08
2023-02-03T07:19:21.609Z,79.27
2023-02-03T07:22:24.471Z,78.72
2023-02-03T07:25:27.589Z,78.27
2023-02-03T07:28:35.208Z,77.82
2023-02-03T07:31:38.626Z,78.17
2023-02-03T07:34:41.616Z,78.45
2023-02-03T07:37:44.910Z,78.22
2023-02-03T07:40:47.803Z,78.11
2023-02-03T07:43:50.692Z,77.91
2023-02-03T07:46:53.554Z,77.61
2023-02-03T07:49:56.486Z,77.50
2023-02-03T07:53:00.225Z,77.09
2023-02-03T07:56:05.362Z,76.84
2023-02-03T07:59:08.543Z,76.14
2023-02-03T08:02:14.105Z,76.28
2023-02-03T08:05:18.587Z,75.55
2023-02-03T08:08:21.394Z,75.90
2023-02-03T08:11:24.202Z,76.14
2023-02-03T08:14:27.080Z,76.24
2023-02-03T08:17:29.911Z,75.66
2023-02-03T08:20:32.713Z,74.04
2023-02-03T08:23:35.590Z,73.81
2023-02-03T08:26:38.991Z,74.32
2023-02-03T08:29:41.946Z,75.17
2023-02-03T08:32:44.804Z,75.80
2023-02-03T08:35:49.978Z,75.34
2023-02-03T08:38:52.942Z,76.29
2023-02-03T08:41:55.734Z,76.20
2023-02-03T08:44:59.015Z,76.19
2023-02-03T08:48:01.967Z,76.28
2023-02-03T08:51:16.061Z,76.35
2023-02-03T08:54:19.471Z,76.87
2023-02-03T08:57:22.321Z,76.87
2023-02-03T09:00:25.495Z,76.41
2023-02-03T09:03:28.531Z,76.54
2023-02-03T09:06:31.533Z,76.57
2023-02-03T09:09:37.030Z,76.35
2023-02-03T09:12:39.948Z,76.23
2023-02-03T09:15:42.752Z,76.51
2023-02-03T09:18:46.524Z,75.75
2023-02-03T09:21:49.746Z,75.71
2023-02-03T09:24:52.707Z,76.37
2023-02-03T09:27:55.711Z,76.33
2023-02-03T09:31:03.485Z,76.91
2023-02-03T09:34:06.394Z,77.49
2023-02-03T09:37:09.266Z,77.67
2023-02-03T09:40:31.103Z,77.66
2023-02-03T09:43:46.882Z,77.83
2023-02-03T09:46:55.563Z,77.79
2023-02-03T09:50:01.959Z,78.08
2023-02-03T09:53:08.112Z,78.34
2023-02-03T09:56:36.347Z,78.62
2023-02-03T09:59:40.986Z,78.91
2023-02-03T10:02:55.811Z,79.35
2023-02-03T10:06:31.824Z,79.36
2023-02-03T10:09:56.253Z,79.97
2023-02-03T10:13:10.226Z,80.35
2023-02-03T10:16:31.616Z,81.17
2023-02-03T10:19:44.575Z,81.01
2023-02-03T10:22:58.779Z,80.98
2023-02-03T10:26:09.591Z,80.83
2023-02-03T10:29:37.701Z,81.18
2023-02-03T10:32:40.489Z,81.09
2023-02-03T10:35:49.203Z,81.19
2023-02-03T10:39:24.569Z,81.35
2023-02-03T10:42:50.247Z,81.29
2023-02-03T10:45:53.293Z,81.67
2023-02-03T10:48:57.415Z,81.81
2023-02-03T10:52:05.069Z,81.92
2023-02-03T10:55:30.229Z,81.96
2023-02-03T10:58:34.600Z,82.32
2023-02-03T11:01:44.626Z,82.34
2023-02-03T11:04:47.608Z,82.13
2023-02-03T11:07:52.475Z,82.04
2023-02-03T11:11:03.255Z,82.27
2023-02-03T11:14:09.073Z,82.35
2023-02-03T11:17:19.294Z,82.29
2023-02-03T11:20:26.722Z,82.61
2023-02-03T11:23:29.992Z,82.74
2023-02-03T11:26:42.042Z,82.97
2023-02-03T11:29:48.775Z,82.86
2023-02-03T11:32:53.426Z,82.77
2023-02-03T11:35:59.232Z,82.71
2023-02-03T11:39:30.287Z,82.89
2023-02-03T11:42:36.074Z,82.94
2023-02-03T11:45:48.611Z,83.21
2023-02-03T11:49:10.435Z,83.66
2023-02-03T11:52:22.598Z,83.87
2023-02-03T11:55:54.866Z,84.05
2023-02-03T11:59:33.281Z,84.33
2023-02-03T12:02:53.532Z,84.04
2023-02-03T12:06:07.211Z,83.76
2023-02-03T12:09:22.906Z,83.69
2023-02-03T12:12:56.252Z,83.41
2023-02-03T12:16:31.991Z,83.36
2023-02-03T12:19:59.276Z,83.36
2023-02-03T12:23:05.111Z,83.24
2023-02-03T12:26:18.579Z,83.22
2023-02-03T12:29:28.473Z,83.10
2023-02-03T12:32:38.618Z,83.45
2023-02-03T12:35:52.134Z,83.75
2023-02-03T12:39:09.302Z,84.18
2023-02-03T12:42:24.527Z,84.46
2023-02-03T12:45:35.116Z,84.62
2023-02-03T12:48:44.280Z,84.51
2023-02-03T12:51:52.109Z,84.40
2023-02-03T12:55:16.325Z,84.56
2023-02-03T12:58:37.280Z,85.10
2023-02-03T13:01:51.274Z,85.24
2023-02-03T13:05:01.813Z,85.88
2023-02-03T13:08:23.600Z,86.05
2023-02-03T13:11:48.673Z,86.83
2023-02-03T13:15:16.250Z,86.97
2023-02-03T13:18:34.795Z,86.95
2023-02-03T13:21:37.801Z,87.31
2023-02-03T13:24:50.669Z,87.53
2023-02-03T13:28:06.465Z,87.61
2023-02-03T13:31:43.891Z,87.66
2023-02-03T13:35:12.979Z,88.39
2023-02-03T13:39:02.872Z,88.80
2023-02-03T13:42:20.408Z,89.27
2023-02-03T13:45:39.084Z,89.70
2023-02-03T13:48:45.855Z,89.54
2023-02-03T13:51:48.869Z,90.07
2023-02-03T13:54:51.944Z,89.73
2023-02-03T13:57:55.333Z,90.29
2023-02-03T14:01:05.493Z,89.89
2023-02-03T14:04:28.771Z,90.29
2023-02-03T14:07:35.204Z,89.98
2023-02-03T14:10:38.306Z,90.41
2023-02-03T14:13:41.364Z,90.17
2023-02-03T14:16:51.971Z,90.23
2023-02-03T14:19:56.401Z,90.40
2023-02-03T14:23:05.523Z,90.39
2023-02-03T14:26:18.131Z,90.00
2023-02-03T14:29:25.824Z,90.00
2023-02-03T14:32:48.356Z,90.92
2023-02-03T14:35:51.562Z,90.76
2023-02-03T14:38:56.649Z,90.58
2023-02-03T14:42:02.422Z,90.75
2023-02-03T14:45:14.599Z,90.17
2023-02-03T14:48:33.065Z,90.29
2023-02-03T14:51:42.214Z,90.15
2023-02-03T14:55:34.651Z,89.99
2023-02-03T14:58:46.071Z,89.84
2023-02-03T15:01:49.093Z,90.19
2023-02-03T15:05:13.136Z,90.03
2023-02-03T15:08:42.414Z,89.55
2023-02-03T15:11:45.503Z,89.88
2023-02-03T15:14:48.731Z,89.66
2023-02-03T15:17:54.417Z,89.52
2023-02-03T15:20:57.779Z,89.15
2023-02-03T15:24:00.850Z,89.39
2023-02-03T15:27:03.955Z,89.59
2023-02-03T15:30:19.574Z,89.65
2023-02-03T15:33:24.197Z,89.35
2023-02-03T15:36:39.796Z,89.75
2023-02-03T15:39:54.368Z,89.99
2023-02-03T15:43:06.604Z,90.16
2023-02-03T15:46:19.306Z,90.33
2023-02-03T15:49:40.373Z,90.09
2023-02-03T15:52:46.047Z,90.02
2023-02-03T15:55:53.412Z,90.87
2023-02-03T15:58:59.037Z,90.65
2023-02-03T16:02:15.228Z,90.71
2023-02-03T16:05:32.036Z,90.65
2023-02-03T16:08:38.807Z,90.59
2023-02-03T16:15:05.304Z,90.98
2023-02-03T16:18:18.282Z,91.03
2023-02-03T16:21:34.251Z,91.04
2023-02-03T16:24:40.652Z,91.46
2023-02-03T16:27:45.657Z,91.40
2023-02-03T16:31:20.013Z,91.46
2023-02-03T16:34:41.902Z,91.43
2023-02-03T16:38:03.467Z,91.59
2023-02-03T16:41:35.491Z,91.20
2023-02-03T16:44:57.204Z,91.86
2023-02-03T16:48:19.045Z,91.81
2023-02-03T16:51:22.034Z,91.70
2023-02-03T16:54:25.605Z,91.72
2023-02-03T16:57:28.547Z,91.98
2023-02-03T17:00:31.721Z,92.54
2023-02-03T17:03:36.306Z,92.42
2023-02-03T17:06:40.145Z,92.88
2023-02-03T17:09:43.082Z,92.71
2023-02-03T17:12:46.304Z,92.56
2023-02-03T17:15:52.891Z,92.68
2023-02-03T17:18:55.893Z,92.02
2023-02-03T17:21:58.966Z,91.83
2023-02-03T17:25:02.129Z,92.37
2023-02-03T17:28:07.237Z,92.29
2023-02-03T17:31:19.133Z,92.16
2023-02-03T17:34:22.446Z,92.03
2023-02-03T17:37:25.460Z,92.19
2023-02-03T17:53:52.634Z,91.67
2023-02-03T17:56:55.549Z,91.06
2023-02-03T17:59:59.596Z,91.13
2023-02-03T18:03:02.985Z,90.86
2023-02-03T18:06:07.392Z,90.94
2023-02-03T18:09:10.456Z,90.54
2023-02-03T18:12:13.880Z,90.50
2023-02-03T18:15:16.905Z,90.33
2023-02-03T18:18:21.626Z,89.57
2023-02-03T18:21:26.420Z,88.98
2023-02-03T18:24:30.686Z,88.57
2023-02-03T18:27:33.701Z,87.68
2023-02-03T18:30:36.840Z,87.31
2023-02-03T18:33:40.404Z,86.62
2023-02-03T18:36:43.544Z,85.92
2023-02-03T18:39:47.266Z,85.96
2023-02-03T18:42:50.254Z,85.12
2023-02-03T18:45:53.104Z,84.10
2023-02-03T18:48:56.687Z,83.22
2023-02-03T18:51:59.552Z,83.21
2023-02-03T18:55:02.667Z,83.23
2023-02-03T18:58:05.813Z,82.97
2023-02-03T19:01:08.897Z,83.34
2023-02-03T19:04:11.921Z,83.36
2023-02-03T19:07:14.927Z,83.39
2023-02-03T19:10:18.445Z,83.44
2023-02-03T19:13:22.067Z,83.81
2023-02-03T19:16:25.082Z,84.62
2023-02-03T19:19:28.279Z,86.11
2023-02-03T19:22:32.761Z,87.23
2023-02-03T19:25:36.515Z,88.29
2023-02-03T19:28:40.724Z,89.64
2023-02-03T19:31:43.976Z,90.43
2023-02-03T19:34:47.249Z,91.49
2023-02-03T19:37:50.354Z,91.65
2023-02-03T19:40:53.326Z,92.09
2023-02-03T19:43:56.729Z,92.43
2023-02-03T19:46:59.775Z,92.98
2023-02-03T19:50:02.768Z,92.79
2023-02-03T19:53:08.458Z,92.83
2023-02-03T19:56:11.622Z,93.32
2023-02-03T19:59:14.647Z,93.54
2023-02-03T20:02:17.783Z,93.36
2023-02-03T20:05:21.300Z,93.11
2023-02-03T20:08:24.456Z,93.09
2023-02-03T20:11:28.534Z,92.87
2023-02-03T20:14:32.976Z,92.80
2023-02-03T20:17:36.352Z,93.01
2023-02-03T20:20:39.409Z,93.02
2023-02-03T20:23:42.604Z,92.82
2023-02-03T20:26:45.966Z,92.78
2023-02-03T20:29:49.782Z,92.97
2023-02-03T20:32:54.950Z,92.97
2023-02-03T20:35:58.733Z,92.62
2023-02-03T20:39:01.936Z,92.54
2023-02-03T20:42:19.244Z,92.54
2023-02-03T20:45:25.003Z,92.60
2023-02-03T20:48:28.361Z,92.69
2023-02-03T20:51:32.302Z,92.89
2023-02-03T20:54:35.629Z,92.78
2023-02-03T20:57:38.669Z,92.85
2023-02-03T21:00:42.299Z,92.77
2023-02-03T21:04:04.041Z,92.91
2023-02-03T21:07:14.557Z,92.80
2023-02-03T21:10:21.153Z,93.26
2023-02-03T21:13:26.329Z,92.93
2023-02-03T21:16:39.658Z,92.93
2023-02-03T21:19:42.774Z,92.96
2023-02-03T21:22:45.788Z,92.62
2023-02-03T21:25:49.152Z,92.44
2023-02-03T21:28:57.680Z,92.61
2023-02-03T21:32:00.962Z,92.86
2023-02-03T21:35:24.563Z,92.75
2023-02-03T21:38:33.266Z,92.73
2023-02-03T21:41:36.591Z,92.54
2023-02-03T21:44:40.679Z,92.68
2023-02-03T21:47:45.581Z,92.63
2023-02-03T21:50:48.798Z,92.39
2023-02-03T21:53:55.395Z,92.76
2023-02-03T21:56:58.473Z,92.69
2023-02-03T22:00:01.492Z,92.87
2023-02-03T22:03:08.481Z,92.99
2023-02-03T22:06:19.675Z,92.87
2023-02-03T22:09:25.115Z,93.02
2023-02-03T22:12:28.034Z,92.69
2023-02-03T22:15:31.143Z,92.67
2023-02-03T22:18:34.209Z,92.69
2023-02-03T22:21:37.232Z,92.91
2023-02-03T22:24:40.109Z,93.27
2023-02-03T22:27:43.213Z,93.30
2023-02-03T22:30:46.339Z,93.36
2023-02-03T22:33:49.357Z,93.42
2023-02-03T22:36:52.292Z,93.48
2023-02-03T22:39:55.158Z,93.28
2023-02-03T22:42:58.169Z,93.53
2023-02-03T22:46:04.893Z,93.41
2023-02-03T22:49:08.104Z,93.42
2023-02-03T22:52:11.089Z,93.14
2023-02-03T22:55:13.959Z,93.26
2023-02-03T22:58:16.941Z,93.20
2023-02-03T23:01:19.904Z,93.40
2023-02-03T23:04:23.766Z,92.85
2023-02-03T23:07:26.801Z,92.86
2023-02-03T23:10:33.254Z,92.78
2023-02-03T23:13:36.287Z,92.60
2023-02-03T23:16:39.425Z,92.92
2023-02-03T23:19:42.457Z,93.22
2023-02-03T23:22:45.595Z,92.93
2023-02-03T23:25:48.489Z,92.99
2023-02-03T23:28:51.434Z,93.17
2023-02-03T23:31:54.351Z,93.13
2023-02-03T23:35:15.936Z,93.24
2023-02-03T23:38:19.114Z,93.26
2023-02-03T23:41:21.944Z,93.27
2023-02-03T23:44:24.892Z,93.11
2023-02-03T23:47:27.737Z,93.26
2023-02-03T23:50:31.074Z,93.33
2023-02-03T23:53:34.162Z,93.74
2023-02-03T23:56:37.061Z,93.71
2023-02-03T23:59:40.026Z,93.57
